Floreffe, Pennsylvania
Current Conditions -  °F | °C
As of 10:20 AM on Wednesday 26 Nov 2014 (Local Time) from KAGC Reporting Station
Heavy Snow Heavy Snow  
Wind Chill: 26°   Ceiling: 1600
Heat Index: 31°   Visibility: 0.25mi
Dew Point: 26°   Wind: 5mph
Humidity: 82%   Direction: 360°N
Pressure: 30.07"   Gusts: NA
Location:  40.2958°N, 79.9241°W
Report Text: KAGC 261520Z 36004KT 1/4SM R28/3500V4500FT +SN OVC016 M01/M03 A3007 RMK AO2 P0003 T10061033
Loading
Personal Weather Stations






























Interactive Weather Map New forecast layout! Learn more

10-Day Weather Forecast

Advertisements
Track Severe Weather on mobile